Time;durP1;ratioP1;P1;durP2;ratioP2;P2;SDS_P1;SDS_P2;PMS_P1;PMS_P2;Temp;Humidity;BMP_temperature;BMP_pressure;BME280_temperature;BME280_humidity;BME280_pressure;Samples;Min_cycle;Max_cycle;Signal;HPM_P1;HPM_P2
2024/04/20 00:01:10;;;;;;;5.80;2.13;;;;;;;5.51;78.32;96112.75;5244372;27;20482;-74
2024/04/20 00:03:40;;;;;;;8.70;3.17;;;;;;;5.50;78.17;96115.47;5244356;27;20014;-74
2024/04/20 00:06:10;;;;;;;6.90;2.08;;;;;;;5.49;78.09;96124.22;5244046;27;20014;-75
2024/04/20 00:08:40;;;;;;;1.83;1.35;;;;;;;5.50;78.04;96120.66;5244403;27;20471;-74
2024/04/20 00:11:12;;;;;;;3.47;1.90;;;;;;;5.49;77.97;96119.84;5244482;27;20047;-74
2024/04/20 00:13:44;;;;;;;3.50;1.83;;;;;;;5.49;77.59;96119.06;5244623;27;20014;-74
2024/04/20 00:16:13;;;;;;;6.65;2.00;;;;;;;5.46;77.59;96114.19;5244103;27;20011;-74
2024/04/20 00:18:43;;;;;;;3.00;1.60;;;;;;;5.45;77.61;96117.75;5245546;27;20014;-74
2024/04/20 00:21:12;;;;;;;5.22;1.60;;;;;;;5.42;77.72;96121.44;5245995;27;20504;-74
2024/04/20 00:23:42;;;;;;;7.03;1.73;;;;;;;5.40;77.47;96115.66;5245688;27;20003;-74
2024/04/20 00:26:14;;;;;;;2.97;1.38;;;;;;;5.39;77.20;96118.38;5244760;27;20022;-74
2024/04/20 00:28:43;;;;;;;3.78;2.38;;;;;;;5.38;77.08;96120.19;5245175;27;20011;-74
2024/04/20 00:31:12;;;;;;;4.63;1.63;;;;;;;5.36;77.00;96127.28;5245033;27;20339;-74
2024/04/20 00:33:42;;;;;;;3.15;1.92;;;;;;;5.33;76.95;96125.81;5244772;27;20007;-74
2024/04/20 00:36:11;;;;;;;2.05;1.27;;;;;;;5.33;76.94;96128.38;5243460;27;20022;-74
2024/04/20 00:38:40;;;;;;;1.92;1.40;;;;;;;5.34;76.99;96126.63;5243755;27;20007;-75
2024/04/20 00:41:10;;;;;;;18.48;2.92;;;;;;;5.33;77.10;96128.38;5243732;27;20007;-74
2024/04/20 00:43:42;;;;;;;3.75;1.40;;;;;;;5.34;77.18;96129.22;5244118;27;20003;-74
2024/04/20 00:46:11;;;;;;;3.63;1.58;;;;;;;5.34;77.07;96127.44;5243457;27;20014;-75
2024/04/20 00:48:41;;;;;;;4.65;1.58;;;;;;;5.33;76.97;96128.38;5244103;27;20398;-75
2024/04/20 00:51:11;;;;;;;2.90;1.20;;;;;;;5.31;76.50;96132.94;5243647;27;20003;-74
2024/04/20 00:53:41;;;;;;;4.97;3.08;;;;;;;5.29;76.66;96134.88;5243569;27;20003;-74
2024/04/20 00:56:11;;;;;;;4.07;1.13;;;;;;;5.29;76.83;96128.88;5243447;27;20018;-74
2024/04/20 00:58:47;;;;;;;2.30;1.02;;;;;;;5.27;76.86;96136.81;5243870;27;20018;-75
2024/04/20 01:01:19;;;;;;;5.45;1.60;;;;;;;5.26;76.89;96130.00;5243706;27;20007;-74
2024/04/20 01:03:49;;;;;;;4.93;1.30;;;;;;;5.27;77.10;96136.81;5243700;27;20347;-74
2024/04/20 01:06:19;;;;;;;1.95;0.90;;;;;;;5.28;76.79;96151.34;5242666;27;20096;-74
2024/04/20 01:08:48;;;;;;;4.47;0.95;;;;;;;5.29;77.03;96144.38;5243350;27;20003;-74
2024/04/20 01:11:18;;;;;;;3.88;1.27;;;;;;;5.28;77.05;96148.75;5243244;27;20007;-74
2024/04/20 01:13:55;;;;;;;3.55;1.17;;;;;;;5.26;77.15;96150.69;5242982;27;20452;-74
2024/04/20 01:16:25;;;;;;;1.83;0.85;;;;;;;5.28;77.29;96156.50;5242590;27;20007;-74
2024/04/20 01:18:52;;;;;;;4.78;1.58;;;;;;;5.31;77.10;96145.03;5242853;27;20011;-74
2024/04/20 01:21:22;;;;;;;4.53;1.10;;;;;;;5.29;77.53;96147.81;5242955;27;20018;-74
2024/04/20 01:23:55;;;;;;;3.60;1.23;;;;;;;5.28;77.37;96151.34;5245119;27;20007;-74
2024/04/20 01:26:27;;;;;;;4.13;1.00;;;;;;;5.26;77.15;96155.88;5242863;27;20022;-74
2024/04/20 01:28:57;;;;;;;3.50;1.30;;;;;;;5.22;77.03;96157.16;5243621;27;20003;-74
2024/04/20 01:31:26;;;;;;;3.33;1.40;;;;;;;5.20;77.11;96155.69;5243167;27;20003;-74
2024/04/20 01:33:55;;;;;;;2.03;1.20;;;;;;;5.22;77.39;96158.94;5243365;27;20003;-74
2024/04/20 01:36:25;;;;;;;5.05;1.33;;;;;;;5.22;77.29;96158.94;5244608;27;20031;-74
2024/04/20 01:38:56;;;;;;;3.08;1.33;;;;;;;5.20;77.28;96159.09;5243468;27;20015;-75
2024/04/20 01:41:28;;;;;;;4.60;1.10;;;;;;;5.20;77.41;96161.66;5246975;27;20014;-74
2024/04/20 01:43:58;;;;;;;3.55;1.23;;;;;;;5.19;77.30;96165.22;5246300;27;20007;-74
2024/04/20 01:46:27;;;;;;;5.82;1.67;;;;;;;5.16;77.45;96161.19;5246296;27;20025;-74
2024/04/20 01:48:56;;;;;;;1.88;1.40;;;;;;;5.15;77.47;96163.94;5246665;27;20003;-74
2024/04/20 01:51:26;;;;;;;2.97;1.60;;;;;;;5.14;77.49;96164.91;5245646;27;20007;-74
2024/04/20 01:53:55;;;;;;;3.80;1.60;;;;;;;5.15;77.49;96164.72;5246064;27;20007;-74
2024/04/20 01:56:24;;;;;;;6.93;1.30;;;;;;;5.16;77.84;96168.16;5245339;27;20011;-74
2024/04/20 01:58:56;;;;;;;3.83;1.90;;;;;;;5.16;77.82;96166.38;5245898;27;20486;-74
2024/04/20 02:01:27;;;;;;;3.53;1.40;;;;;;;5.18;77.75;96167.97;5267149;27;20003;-74
2024/04/20 02:03:56;;;;;;;3.30;1.52;;;;;;;5.18;77.94;96165.38;5267514;27;20010;-73
2024/04/20 02:06:26;;;;;;;3.40;1.58;;;;;;;5.19;78.19;96174.78;5264761;27;20081;-74
2024/04/20 02:08:55;;;;;;;4.93;1.80;;;;;;;5.17;77.98;96172.34;5263848;27;20007;-74
2024/04/20 02:11:24;;;;;;;7.40;2.15;;;;;;;5.16;78.15;96173.31;5266874;27;19999;-74
2024/04/20 02:13:56;;;;;;;3.85;1.80;;;;;;;5.17;78.26;96174.94;5266971;27;20010;-74
2024/04/20 02:16:26;;;;;;;6.40;2.23;;;;;;;5.20;78.30;96172.00;5255447;27;20013;-74
2024/04/20 02:18:55;;;;;;;6.72;1.80;;;;;;;5.20;78.13;96177.19;5245688;27;20258;-74
2024/04/20 02:21:26;;;;;;;3.75;1.52;;;;;;;5.19;78.15;96174.78;5244779;27;20003;-74
2024/04/20 02:23:55;;;;;;;3.58;1.88;;;;;;;5.18;77.90;96181.69;5245692;27;20007;-74
2024/04/20 02:26:24;;;;;;;5.18;2.05;;;;;;;5.17;78.13;96182.69;5245147;27;20017;-74
2024/04/20 02:28:56;;;;;;;3.80;1.75;;;;;;;5.18;78.41;96193.81;5245746;27;20010;-74
2024/04/20 02:31:26;;;;;;;4.47;1.97;;;;;;;5.15;78.22;96194.97;5245560;27;20014;-74
2024/04/20 02:33:55;;;;;;;7.18;2.10;;;;;;;5.15;78.47;96193.16;5244923;27;20239;-74
2024/04/20 02:36:30;;;;;;;3.35;1.90;;;;;;;5.16;78.42;96189.63;5246288;27;20003;-74
2024/04/20 02:39:00;;;;;;;6.95;2.10;;;;;;;5.15;78.21;96198.34;5266794;27;20010;-74
2024/04/20 02:41:29;;;;;;;5.90;1.95;;;;;;;5.13;78.21;96202.06;5266947;27;19995;-74
2024/04/20 02:44:01;;;;;;;6.38;2.25;;;;;;;5.12;78.68;96201.25;5266678;27;20002;-74
2024/04/20 02:46:30;;;;;;;2.27;1.70;;;;;;;5.11;78.41;96198.81;5247827;27;20014;-75
2024/04/20 02:49:00;;;;;;;4.68;2.20;;;;;;;5.11;78.42;96202.22;5245435;27;20003;-74
2024/04/20 02:51:29;;;;;;;2.38;1.65;;;;;;;5.11;78.31;96194.44;5243642;27;20015;-74
2024/04/20 02:53:58;;;;;;;4.25;2.30;;;;;;;5.12;78.52;96213.38;5244764;27;20003;-74
2024/04/20 02:56:27;;;;;;;5.28;1.70;;;;;;;5.14;78.24;96208.88;5243634;27;20344;-74
2024/04/20 02:59:00;;;;;;;12.05;2.95;;;;;;;5.13;78.04;96212.41;5244770;27;20003;-74
2024/04/20 03:01:29;;;;;;;;;;;;;;;5.13;78.41;96212.41;5245203;27;20003;-74
2024/04/20 03:03:59;;;;;;;5.50;1.90;;;;;;;5.12;78.12;96218.56;5244457;27;19935;-74
2024/04/20 03:06:28;;;;;;;5.38;1.73;;;;;;;5.11;78.03;96209.16;5244384;27;20003;-74
2024/04/20 03:08:58;;;;;;;4.55;2.03;;;;;;;5.10;78.03;96223.88;5244783;27;20007;-74
2024/04/20 03:11:27;;;;;;;3.78;1.80;;;;;;;5.09;77.98;96224.03;5244617;27;20013;-74
2024/04/20 03:13:57;;;;;;;4.70;1.63;;;;;;;5.08;77.91;96228.38;5244676;27;20372;-74
2024/04/20 03:16:29;;;;;;;4.10;2.35;;;;;;;5.07;78.04;96229.38;5243534;27;20007;-74
2024/04/20 03:18:58;;;;;;;2.33;1.60;;;;;;;5.04;77.97;96232.25;5244241;27;20003;-75
2024/04/20 03:21:27;;;;;;;2.85;2.05;;;;;;;5.04;78.35;96231.44;5244202;27;20077;-74
2024/04/20 03:23:57;;;;;;;3.80;1.75;;;;;;;5.06;78.47;96234.69;5243893;27;20003;-74
2024/04/20 03:26:26;;;;;;;7.75;2.08;;;;;;;5.03;78.41;96232.38;5243438;27;20336;-74
2024/04/20 03:28:55;;;;;;;2.83;1.52;;;;;;;5.02;78.44;96231.59;5243996;27;20010;-75
2024/04/20 03:31:24;;;;;;;2.63;1.50;;;;;;;5.02;78.55;96241.13;5243974;27;20003;-74
2024/04/20 03:34:01;;;;;;;6.07;2.20;;;;;;;5.00;78.63;96243.06;5244139;27;20003;-75
2024/04/20 03:36:27;;;;;;;3.20;1.85;;;;;;;4.99;78.51;96254.38;5243457;27;20014;-74
2024/04/20 03:38:57;;;;;;;3.72;2.00;;;;;;;4.98;78.54;96244.97;5244211;27;20077;-75
2024/04/20 03:41:26;;;;;;;4.07;2.00;;;;;;;4.99;78.48;96251.78;5243944;27;20014;-75
2024/04/20 03:43:55;;;;;;;2.45;1.70;;;;;;;5.01;78.50;96262.75;5243755;27;20007;-75
2024/04/20 03:46:25;;;;;;;2.85;1.70;;;;;;;5.01;78.40;96262.75;5243254;27;20010;-75
2024/04/20 03:48:54;;;;;;;5.68;2.08;;;;;;;5.01;78.41;96265.34;5243505;27;19999;-75
2024/04/20 03:51:26;;;;;;;4.85;1.92;;;;;;;5.01;78.64;96270.50;5243786;27;20010;-74
2024/04/20 03:53:56;;;;;;;1.92;1.60;;;;;;;5.02;78.50;96265.19;5243677;27;20017;-75
2024/04/20 03:56:25;;;;;;;2.25;1.70;;;;;;;5.03;78.44;96271.16;5243111;27;20014;-74
2024/04/20 03:58:54;;;;;;;5.00;1.90;;;;;;;5.04;78.47;96277.97;5243277;27;20018;-75
2024/04/20 04:01:24;;;;;;;8.13;2.08;;;;;;;5.03;78.50;96279.75;5243317;27;20014;-74
2024/04/20 04:03:53;;;;;;;3.50;2.15;;;;;;;5.03;78.56;96284.94;5242913;27;20007;-75
2024/04/20 04:06:25;;;;;;;2.60;1.80;;;;;;;5.03;78.37;96291.84;5243145;27;20003;-75
2024/04/20 04:08:54;;;;;;;3.15;1.80;;;;;;;5.03;78.42;96292.69;5243687;27;20003;-74
2024/04/20 04:11:24;;;;;;;3.35;1.55;;;;;;;5.03;78.09;96292.69;5243900;27;20018;-75
2024/04/20 04:13:53;;;;;;;5.18;2.00;;;;;;;5.03;78.50;96299.59;5243111;27;20031;-75
2024/04/20 04:16:22;;;;;;;4.45;2.30;;;;;;;5.00;78.12;96302.50;5243333;27;20007;-74
2024/04/20 04:18:52;;;;;;;4.00;1.90;;;;;;;4.96;78.03;96304.56;5243421;27;20003;-76
2024/04/20 04:21:18;;;;;;;4.38;1.88;;;;;;;4.93;77.94;96305.69;5243262;27;20018;-74
2024/04/20 04:23:50;;;;;;;4.00;2.10;;;;;;;4.93;78.36;96310.06;5243104;27;20007;-75
2024/04/20 04:26:17;;;;;;;5.03;2.43;;;;;;;4.94;78.11;96307.34;5242902;27;20013;-74
2024/04/20 04:28:46;;;;;;;2.85;1.80;;;;;;;4.94;78.33;96307.34;5243418;27;20275;-75
2024/04/20 04:31:16;;;;;;;2.95;1.70;;;;;;;4.92;78.11;96309.25;5242902;27;20003;-75
2024/04/20 04:33:45;;;;;;;5.82;2.72;;;;;;;4.90;78.12;96316.34;5243073;27;20003;-75
2024/04/20 04:36:14;;;;;;;3.20;2.00;;;;;;;4.91;78.02;96317.16;5242602;27;20493;-74
2024/04/20 04:38:44;;;;;;;5.80;2.97;;;;;;;4.89;78.24;96322.47;5243553;27;20003;-75
2024/04/20 04:41:15;;;;;;;5.68;2.38;;;;;;;4.89;78.66;96335.41;5242991;27;20011;-74
2024/04/20 04:43:45;;;;;;;3.50;2.38;;;;;;;4.91;78.61;96336.06;5242985;27;20017;-75
2024/04/20 04:46:14;;;;;;;4.40;2.63;;;;;;;4.93;78.29;96343.66;5242460;27;20007;-75
2024/04/20 04:48:43;;;;;;;5.55;2.38;;;;;;;4.91;78.13;96343.81;5242697;27;20471;-74
2024/04/20 04:51:13;;;;;;;5.00;2.60;;;;;;;4.93;77.93;96354.00;5242750;27;20021;-74
2024/04/20 04:53:42;;;;;;;7.65;2.80;;;;;;;4.95;78.03;96352.88;5242721;27;20018;-74
2024/04/20 04:56:11;;;;;;;4.65;2.25;;;;;;;4.98;77.93;96353.53;5242396;27;20007;-74
2024/04/20 04:58:44;;;;;;;2.83;2.25;;;;;;;5.02;78.87;96354.88;5242648;27;20014;-74
2024/04/20 05:01:14;;;;;;;6.25;2.70;;;;;;;5.07;78.71;96357.78;5242864;27;20017;-74
2024/04/20 05:03:43;;;;;;;3.95;2.38;;;;;;;5.11;78.74;96357.34;5242764;27;20003;-74
2024/04/20 05:06:13;;;;;;;3.55;2.20;;;;;;;5.16;78.63;96360.28;5242649;27;20007;-74
2024/04/20 05:08:42;;;;;;;2.83;2.10;;;;;;;5.18;78.14;96364.47;5242548;27;20003;-74
2024/04/20 05:11:11;;;;;;;3.33;1.98;;;;;;;5.18;77.58;96370.47;5242522;27;20006;-74
2024/04/20 05:13:43;;;;;;;4.18;1.70;;;;;;;5.17;77.74;96379.19;5242549;27;20015;-75
2024/04/20 05:16:13;;;;;;;5.60;2.37;;;;;;;5.17;77.32;96384.38;5245176;27;20015;-75
2024/04/20 05:18:42;;;;;;;3.88;2.10;;;;;;;5.14;77.41;96380.31;5246017;27;20303;-75
2024/04/20 05:21:11;;;;;;;2.22;1.55;;;;;;;5.13;77.32;96383.03;5245808;27;20011;-75
2024/04/20 05:23:41;;;;;;;3.85;1.90;;;;;;;5.13;77.10;96394.19;5245731;27;20010;-74
2024/04/20 05:26:10;;;;;;;2.97;1.67;;;;;;;5.10;77.08;96383.38;5245350;27;20342;-74
2024/04/20 05:28:39;;;;;;;4.57;1.90;;;;;;;5.08;76.96;96395.63;5245799;27;20007;-74
2024/04/20 05:31:11;;;;;;;3.45;1.77;;;;;;;5.12;77.54;96402.13;5245586;27;20018;-74
2024/04/20 05:33:40;;;;;;;2.38;1.63;;;;;;;5.14;77.33;96393.25;5246022;27;20040;-74
2024/04/20 05:36:10;;;;;;;4.55;1.70;;;;;;;5.18;77.21;96405.84;5245434;27;20042;-74
2024/04/20 05:38:40;;;;;;;6.25;1.80;;;;;;;5.20;77.03;96407.31;5246193;27;20347;-74
2024/04/20 05:41:09;;;;;;;2.97;1.45;;;;;;;5.22;76.78;96407.19;5246125;27;20485;-75
2024/04/20 05:43:39;;;;;;;4.72;1.58;;;;;;;5.26;77.15;96406.72;5246454;27;20007;-75
2024/04/20 05:46:08;;;;;;;6.53;2.50;;;;;;;5.28;76.43;96412.53;5245130;27;20018;-74
2024/04/20 05:48:40;;;;;;;2.40;1.83;;;;;;;5.31;76.61;96422.59;5245261;27;20007;-75
2024/04/20 05:51:09;;;;;;;2.55;1.70;;;;;;;5.35;76.46;96429.06;5245282;27;20011;-75
2024/04/20 05:53:39;;;;;;;4.93;1.95;;;;;;;5.34;76.48;96426.66;5245222;27;20031;-75
2024/04/20 05:56:08;;;;;;;3.33;1.55;;;;;;;5.35;76.59;96431.66;5245100;27;20383;-75
2024/04/20 05:58:38;;;;;;;5.75;2.10;;;;;;;5.33;75.92;96431.00;5245294;27;20003;-75
2024/04/20 06:01:07;;;;;;;6.28;1.98;;;;;;;5.33;76.16;96435.38;5245204;27;20003;-74
2024/04/20 06:03:37;;;;;;;8.93;1.92;;;;;;;5.31;75.94;96438.13;5245302;27;20011;-74
2024/04/20 06:06:10;;;;;;;6.88;2.40;;;;;;;5.31;76.13;96438.13;5245460;27;20007;-74
2024/04/20 06:08:39;;;;;;;2.75;1.98;;;;;;;5.31;75.89;96451.06;5245858;27;20347;-75
2024/04/20 06:11:09;;;;;;;3.97;1.80;;;;;;;5.31;75.88;96448.47;5245995;27;20007;-75
2024/04/20 06:13:38;;;;;;;3.72;1.65;;;;;;;5.31;75.87;96460.56;5245413;27;20336;-75
2024/04/20 06:16:08;;;;;;;8.30;2.10;;;;;;;5.31;75.82;96456.22;5244535;27;20010;-75
2024/04/20 06:18:37;;;;;;;5.30;1.58;;;;;;;5.27;75.40;96464.41;5245254;27;20006;-75
2024/04/20 06:21:09;;;;;;;6.68;2.20;;;;;;;5.25;75.37;96469.75;5245028;27;20486;-74
2024/04/20 06:23:39;;;;;;;2.53;1.87;;;;;;;5.23;75.26;96476.84;5245013;27;20489;-75
2024/04/20 06:26:05;;;;;;;2.88;1.70;;;;;;;5.21;74.93;96478.78;5244300;27;20287;-74
2024/04/20 06:28:35;;;;;;;2.92;1.50;;;;;;;5.21;75.10;96478.78;5246025;27;20014;-76
2024/04/20 06:31:05;;;;;;;3.38;1.65;;;;;;;5.22;75.32;96484.75;5246027;27;20003;-74
2024/04/20 06:33:34;;;;;;;3.22;1.92;;;;;;;5.24;75.59;96483.63;5244702;27;20391;-74
2024/04/20 06:36:04;;;;;;;6.05;1.70;;;;;;;5.26;75.13;96486.88;5244176;27;20077;-74
2024/04/20 06:38:36;;;;;;;1.73;1.60;;;;;;;5.26;74.93;96502.41;5244676;27;20014;-74
2024/04/20 06:41:06;;;;;;;3.85;1.70;;;;;;;5.27;74.55;96498.88;5244822;27;20003;-75
2024/04/20 06:43:35;;;;;;;6.28;2.03;;;;;;;5.25;74.83;96505.16;5244441;27;20003;-74
2024/04/20 06:46:05;;;;;;;3.67;1.90;;;;;;;5.28;75.04;96520.38;5244193;27;19999;-74
2024/04/20 06:48:35;;;;;;;2.90;1.73;;;;;;;5.27;75.04;96516.97;5244590;27;20463;-74
2024/04/20 06:51:06;;;;;;;2.92;1.67;;;;;;;5.28;75.06;96520.38;5244705;27;20003;-75
2024/04/20 06:53:37;;;;;;;4.15;1.88;;;;;;;5.30;74.78;96529.59;5244347;27;20013;-75
2024/04/20 06:56:09;;;;;;;2.83;1.43;;;;;;;5.29;74.63;96522.81;5244384;27;20003;-75
2024/04/20 06:58:41;;;;;;;5.60;2.35;;;;;;;5.31;74.57;96526.06;5244337;27;20242;-75
2024/04/20 07:01:10;;;;;;;3.30;1.95;;;;;;;5.34;74.84;96528.34;5244546;27;20499;-74
2024/04/20 07:03:40;;;;;;;2.80;1.73;;;;;;;5.37;74.56;96535.78;5244174;27;20007;-75
2024/04/20 07:06:10;;;;;;;4.00;1.95;;;;;;;5.36;74.47;96534.16;5244172;27;20007;-74
2024/04/20 07:08:46;;;;;;;1.75;1.35;;;;;;;5.36;74.28;96539.34;5244051;27;20003;-75
2024/04/20 07:11:15;;;;;;;3.15;1.85;;;;;;;5.35;73.75;96542.88;5244702;27;20007;-74
2024/04/20 07:13:44;;;;;;;5.43;2.40;;;;;;;5.34;73.91;96550.81;5244338;27;20051;-74
2024/04/20 07:16:14;;;;;;;3.00;1.60;;;;;;;5.39;74.13;96556.34;5243698;27;20003;-74
2024/04/20 07:18:44;;;;;;;4.10;2.10;;;;;;;5.42;73.26;96558.59;5244193;27;20471;-74
2024/04/20 07:21:13;;;;;;;2.70;2.00;;;;;;;5.44;72.91;96561.06;5244733;27;20014;-74
2024/04/20 07:23:45;;;;;;;2.45;1.60;;;;;;;5.46;72.64;96559.13;5243945;27;20022;-74
2024/04/20 07:26:15;;;;;;;3.00;1.45;;;;;;;5.49;72.60;96556.25;5244109;27;19999;-73
2024/04/20 07:28:44;;;;;;;2.08;1.35;;;;;;;5.50;72.38;96569.03;5244069;27;20003;-74
2024/04/20 07:31:13;;;;;;;6.38;2.15;;;;;;;5.49;72.44;96564.81;5244780;27;20474;-74
2024/04/20 07:33:43;;;;;;;4.00;2.40;;;;;;;5.50;72.13;96565.63;5244257;27;20014;-74
2024/04/20 07:36:12;;;;;;;3.08;1.55;;;;;;;5.52;72.30;96568.88;5244218;27;20007;-74
2024/04/20 07:38:41;;;;;;;3.75;1.95;;;;;;;5.54;72.13;96570.34;5243932;27;20018;-74
2024/04/20 07:41:13;;;;;;;6.30;2.45;;;;;;;5.56;71.50;96575.38;5257742;27;20002;-74
2024/04/20 07:43:43;;;;;;;4.80;2.03;;;;;;;5.61;71.93;96582.69;5265934;27;19995;-73
2024/04/20 07:46:12;;;;;;;1.60;1.50;;;;;;;5.63;72.10;96580.75;5263788;27;20003;-73
2024/04/20 07:48:41;;;;;;;1.60;1.40;;;;;;;5.68;71.94;96579.34;5258275;27;20393;-74
2024/04/20 07:51:11;;;;;;;3.00;1.52;;;;;;;5.71;72.14;96592.00;5245236;27;20019;-74
2024/04/20 07:53:40;;;;;;;2.85;1.60;;;;;;;5.72;72.15;96585.84;5244729;27;20350;-74
2024/04/20 07:56:09;;;;;;;3.97;1.65;;;;;;;5.73;71.88;96597.81;5244020;27;20549;-74
2024/04/20 07:58:41;;;;;;;2.78;2.17;;;;;;;5.73;71.43;96597.03;5244474;27;20007;-74
2024/04/20 08:01:10;;;;;;;3.07;1.63;;;;;;;5.74;71.27;96604.63;5244219;27;20006;-74
2024/04/20 08:03:40;;;;;;;3.55;1.58;;;;;;;5.72;70.49;96608.31;5244188;27;20271;-74
2024/04/20 08:06:09;;;;;;;5.78;1.40;;;;;;;5.68;70.38;96601.81;5244426;27;20007;-74
2024/04/20 08:08:39;;;;;;;3.70;1.65;;;;;;;5.63;70.49;96617.81;5245138;27;20007;-74
2024/04/20 08:11:08;;;;;;;3.17;1.77;;;;;;;5.61;70.22;96619.72;5245227;27;20007;-74
2024/04/20 08:13:37;;;;;;;4.43;1.55;;;;;;;5.62;70.62;96621.38;5245477;27;20003;-74
2024/04/20 08:16:10;;;;;;;1.98;1.50;;;;;;;5.62;70.40;96623.94;5244405;27;20485;-74
2024/04/20 08:18:39;;;;;;;2.10;1.58;;;;;;;5.65;70.73;96625.41;5244190;27;20053;-74
2024/04/20 08:21:09;;;;;;;3.53;1.35;;;;;;;5.66;70.18;96627.84;5243792;27;20471;-74
2024/04/20 08:23:38;;;;;;;1.90;1.70;;;;;;;5.69;69.67;96631.94;5243914;27;20017;-74
2024/04/20 08:26:07;;;;;;;6.15;1.83;;;;;;;5.69;69.48;96631.94;5243623;27;20010;-74
2024/04/20 08:28:36;;;;;;;2.33;1.48;;;;;;;5.67;69.92;96639.84;5243756;27;20467;-74
2024/04/20 08:31:06;;;;;;;2.35;1.35;;;;;;;5.65;69.91;96641.75;5243960;27;19999;-74
2024/04/20 08:33:38;;;;;;;1.38;1.15;;;;;;;5.64;69.75;96645.31;5243603;27;20007;-74
2024/04/20 08:36:08;;;;;;;2.53;1.38;;;;;;;5.62;69.87;96649.84;5243365;27;20003;-74
2024/04/20 08:38:38;;;;;;;3.08;1.52;;;;;;;5.64;70.13;96655.66;5243462;27;20007;-74
2024/04/20 08:41:11;;;;;;;2.83;1.23;;;;;;;5.69;69.66;96663.78;5243354;27;20007;-74
2024/04/20 08:43:42;;;;;;;3.60;1.48;;;;;;;5.71;69.76;96664.47;5243505;27;20003;-74
2024/04/20 08:46:16;;;;;;;3.88;1.42;;;;;;;5.74;69.45;96671.09;5243679;27;20363;-74
2024/04/20 08:48:49;;;;;;;5.95;2.28;;;;;;;5.80;68.43;96674.88;5244078;27;20022;-74
2024/04/20 08:51:21;;;;;;;2.63;1.80;;;;;;;5.86;68.55;96676.84;5246789;27;20003;-74
2024/04/20 08:53:52;;;;;;;5.40;2.00;;;;;;;5.92;69.13;96679.66;5247079;27;20043;-74
2024/04/20 08:56:21;;;;;;;3.33;1.75;;;;;;;6.02;69.46;96682.19;5246311;27;20471;-74
2024/04/20 08:58:51;;;;;;;2.35;1.17;;;;;;;6.08;68.02;96684.19;5246908;27;20007;-74
2024/04/20 09:01:21;;;;;;;2.35;1.50;;;;;;;6.09;68.39;96690.16;5246708;27;20010;-74
2024/04/20 09:03:54;;;;;;;2.38;1.38;;;;;;;6.09;68.06;96683.22;5246997;27;20014;-74
2024/04/20 09:06:24;;;;;;;2.53;1.30;;;;;;;6.10;68.77;96692.63;5246855;27;20018;-74
2024/04/20 09:08:54;;;;;;;1.33;1.23;;;;;;;6.12;68.96;96690.69;5246847;27;20031;-74
2024/04/20 09:11:24;;;;;;;1.83;1.50;;;;;;;6.14;68.74;96704.31;5246874;27;19999;-74
2024/04/20 09:13:54;;;;;;;4.88;2.28;;;;;;;6.15;68.62;96697.34;5246984;27;20003;-73
2024/04/20 09:16:23;;;;;;;4.15;1.80;;;;;;;6.16;68.41;96711.91;5246677;27;20055;-74
2024/04/20 09:18:55;;;;;;;3.05;1.48;;;;;;;6.18;69.01;96702.22;5257769;27;19995;-73
2024/04/20 09:21:26;;;;;;;3.35;1.83;;;;;;;6.18;68.73;96704.78;5265890;27;20007;-73
2024/04/20 09:24:05;;;;;;;2.60;1.48;;;;;;;6.20;68.50;96710.63;5260686;27;20007;-74
2024/04/20 09:26:35;;;;;;;7.43;1.88;;;;;;;6.22;69.11;96716.47;5246451;27;20007;-74
2024/04/20 09:29:04;;;;;;;3.88;1.63;;;;;;;6.23;68.87;96717.28;5246633;27;20007;-74
2024/04/20 09:31:34;;;;;;;5.32;1.58;;;;;;;6.22;68.94;96719.06;5246704;27;20003;-74
2024/04/20 09:34:06;;;;;;;3.28;1.33;;;;;;;6.20;67.77;96728.78;5247899;27;19999;-73
2024/04/20 09:36:35;;;;;;;4.43;1.50;;;;;;;6.17;68.04;96719.53;5246371;27;20011;-74
2024/04/20 09:39:07;;;;;;;5.00;1.70;;;;;;;6.18;67.55;96730.69;5247186;27;20051;-73
2024/04/20 09:41:36;;;;;;;3.53;1.40;;;;;;;6.15;68.01;96726.63;5246799;27;20018;-73
2024/04/20 09:44:06;;;;;;;1.70;1.58;;;;;;;6.15;68.50;96731.81;5246455;27;20361;-74
2024/04/20 09:46:39;;;;;;;2.85;1.25;;;;;;;6.18;68.72;96730.69;5245639;27;20007;-74
2024/04/20 09:49:14;;;;;;;3.90;1.50;;;;;;;6.22;69.09;96734.63;5246443;27;20039;-74
2024/04/20 09:51:50;;;;;;;4.80;1.70;;;;;;;6.26;68.85;96737.72;5245778;27;20003;-74
2024/04/20 09:54:28;;;;;;;3.60;2.20;;;;;;;6.28;69.36;96736.59;5245541;27;20018;-74
2024/04/20 09:56:57;;;;;;;6.60;2.03;;;;;;;6.32;69.07;96739.69;5245766;27;20003;-73
2024/04/20 09:59:28;;;;;;;2.42;1.73;;;;;;;6.37;69.36;96746.06;5245833;27;20002;-74
2024/04/20 10:02:00;;;;;;;1.88;1.38;;;;;;;6.41;68.59;96746.56;5245771;27;20003;-73
2024/04/20 10:04:34;;;;;;;2.70;2.30;;;;;;;6.47;68.64;96751.16;5246599;27;20011;-74
2024/04/20 10:07:04;;;;;;;4.35;1.52;;;;;;;6.54;68.42;96756.53;5246100;27;20590;-74
2024/04/20 10:09:35;;;;;;;4.30;1.40;;;;;;;6.55;68.13;96753.78;5247025;27;20081;-74
2024/04/20 10:12:05;;;;;;;2.13;1.40;;;;;;;6.58;68.79;96750.91;5246816;27;20015;-76
2024/04/20 10:14:34;;;;;;;1.67;1.33;;;;;;;6.67;69.25;96751.75;5247018;27;20007;-73
2024/04/20 10:17:04;;;;;;;3.88;1.65;;;;;;;6.76;69.22;96750.84;5246990;27;20003;-73
2024/04/20 10:19:45;;;;;;;6.05;1.63;;;;;;;6.94;68.23;96753.34;5246356;27;20074;-73
2024/04/20 10:22:14;;;;;;;1.95;1.30;;;;;;;7.17;67.92;96750.19;5246883;27;20019;-73
2024/04/20 10:24:53;;;;;;;4.25;1.42;;;;;;;7.43;67.57;96747.53;5246370;27;20490;-74
2024/04/20 10:27:27;;;;;;;1.30;1.20;;;;;;;7.70;65.38;96748.25;5246288;27;20015;-74
2024/04/20 10:30:11;;;;;;;2.33;1.40;;;;;;;7.92;64.97;96754.59;5246010;27;20003;-74
2024/04/20 10:32:40;;;;;;;2.40;1.30;;;;;;;8.09;64.39;96748.44;5246682;27;20003;-74
2024/04/20 10:35:13;;;;;;;1.67;1.20;;;;;;;8.28;62.63;96751.69;5246191;27;20014;-74
2024/04/20 10:37:42;;;;;;;1.65;1.27;;;;;;;8.48;63.14;96752.97;5245089;27;20007;-74
2024/04/20 10:40:13;;;;;;;2.45;1.05;;;;;;;8.62;62.04;96748.91;5245278;27;20104;-74
2024/04/20 10:42:43;;;;;;;3.20;1.30;;;;;;;8.64;61.92;96749.56;5245394;27;20039;-74
2024/04/20 10:45:15;;;;;;;2.78;1.33;;;;;;;8.73;61.01;96758.16;5245301;27;20014;-74
2024/04/20 10:47:47;;;;;;;1.52;1.33;;;;;;;8.86;60.94;96764.47;5245111;27;20005;-74
2024/04/20 10:50:20;;;;;;;2.17;1.38;;;;;;;8.94;59.18;96760.22;5245684;27;20035;-74
2024/04/20 10:52:49;;;;;;;;;;;;;;;8.99;58.57;96763.94;5245926;27;20010;-74
2024/04/20 10:55:19;;;;;;;1.55;1.23;;;;;;;8.96;59.81;96759.06;5244742;27;19934;-75
2024/04/20 10:57:48;;;;;;;2.00;0.98;;;;;;;8.92;59.75;96757.78;5250475;27;20003;-75
2024/04/20 11:00:18;;;;;;;1.40;1.00;;;;;;;9.00;58.28;96759.53;5252530;27;20007;-74
2024/04/20 11:02:51;;;;;;;2.95;1.30;;;;;;;9.16;58.48;96762.09;5252030;27;20426;-74
2024/04/20 11:05:24;;;;;;;1.70;1.00;;;;;;;9.30;57.62;96760.56;5245315;27;20014;-74
2024/04/20 11:07:59;;;;;;;;;;;;;;;9.43;57.03;96758.22;5245371;27;20003;-74
2024/04/20 11:10:29;;;;;;;1.60;1.23;;;;;;;9.58;58.46;96749.69;5244983;27;20379;-74
2024/04/20 11:13:02;;;;;;;2.53;1.20;;;;;;;9.73;55.28;96760.16;5244129;27;20358;-74
2024/04/20 11:15:34;;;;;;;2.58;1.52;;;;;;;9.86;56.81;96761.25;5244420;27;20019;-74
2024/04/20 11:18:04;;;;;;;2.08;1.17;;;;;;;10.03;55.53;96753.31;5244731;27;20018;-75
2024/04/20 11:20:36;;;;;;;1.60;0.90;;;;;;;10.13;52.68;96753.88;5244625;27;20007;-74
2024/04/20 11:23:06;;;;;;;2.88;1.27;;;;;;;10.20;54.39;96754.00;5245108;27;20007;-75
2024/04/20 11:25:35;;;;;;;1.42;0.93;;;;;;;10.25;54.14;96762.09;5244404;27;20018;-75
2024/04/20 11:28:05;;;;;;;6.63;1.27;;;;;;;10.29;53.90;96758.97;5244280;27;20019;-75
2024/04/20 11:30:40;;;;;;;4.40;1.65;;;;;;;10.27;52.92;96762.72;5244899;27;20451;-74
2024/04/20 11:33:09;;;;;;;1.35;1.20;;;;;;;10.19;51.88;96762.78;5245342;27;20003;-74
2024/04/20 11:35:47;;;;;;;1.10;1.00;;;;;;;10.04;51.11;96778.41;5245030;27;20022;-74
2024/04/20 11:38:17;;;;;;;2.03;1.00;;;;;;;9.84;52.06;96786.66;5245173;27;20088;-75
2024/04/20 11:40:47;;;;;;;3.00;1.27;;;;;;;9.68;52.96;96784.13;5245008;27;20043;-74
2024/04/20 11:43:21;;;;;;;2.50;1.30;;;;;;;9.51;52.57;96791.25;5245532;27;20018;-74
2024/04/20 11:45:50;;;;;;;4.90;1.75;;;;;;;9.34;53.50;96790.50;5244556;27;20018;-74
2024/04/20 11:48:20;;;;;;;7.05;1.77;;;;;;;9.23;53.74;96788.25;5244946;27;20407;-74
2024/04/20 11:51:01;;;;;;;2.38;1.13;;;;;;;9.17;54.47;96789.75;5245015;27;20369;-74
2024/04/20 11:56:16;;;;;;;1.10;0.93;;;;;;;9.35;55.93;96780.88;5244899;27;20002;-74
2024/04/20 11:58:49;;;;;;;1.65;1.20;;;;;;;9.54;54.44;96779.66;5245395;27;20014;-75